Time;durP1;ratioP1;P1;durP2;ratioP2;P2;SDS_P1;SDS_P2;PMS_P1;PMS_P2;Temp;Humidity;BMP_temperature;BMP_pressure;BME280_temperature;BME280_humidity;BME280_pressure;Samples;Min_cycle;Max_cycle;Signal;HPM_P1;HPM_P2
2023/05/01 00:01:25;;;;;;;5.10;3.15;;;;;;;-145.50;100.00;65435.88;5039896;28;20057;-74
2023/05/01 00:03:53;;;;;;;9.70;3.40;;;;;;;-145.50;100.00;65435.88;5026916;28;20071;-74
2023/05/01 00:06:20;;;;;;;6.40;3.03;;;;;;;-145.50;100.00;65435.88;5049029;28;20143;-73
2023/05/01 00:08:46;;;;;;;6.75;2.83;;;;;;;-145.50;100.00;65435.88;5042898;28;20053;-74
2023/05/01 00:11:13;;;;;;;6.05;2.95;;;;;;;-145.50;100.00;65435.88;5048478;28;20159;-74
2023/05/01 00:13:39;;;;;;;5.80;2.90;;;;;;;-145.50;100.00;65435.88;5042649;28;20119;-74
2023/05/01 00:16:12;;;;;;;5.88;2.80;;;;;;;-145.50;100.00;65435.88;5045308;28;20136;-74
2023/05/01 00:18:39;;;;;;;6.00;3.05;;;;;;;-145.50;100.00;65435.88;5020190;28;20048;-73
2023/05/01 00:21:05;;;;;;;6.90;2.70;;;;;;;-145.50;100.00;65435.88;5031000;28;20297;-74
2023/05/01 00:23:32;;;;;;;4.50;2.72;;;;;;;-145.50;100.00;65435.88;5048578;28;20147;-74
2023/05/01 00:25:58;;;;;;;4.82;3.05;;;;;;;-145.50;100.00;65435.88;5040596;28;20060;-74
2023/05/01 00:28:25;;;;;;;5.78;2.97;;;;;;;-145.50;100.00;65435.88;5049377;28;20075;-74
2023/05/01 00:30:51;;;;;;;7.20;2.63;;;;;;;-145.50;100.00;65435.88;5038169;28;20072;-74
2023/05/01 00:33:18;;;;;;;6.63;3.38;;;;;;;-145.50;100.00;65435.88;5038719;28;20056;-74
2023/05/01 00:35:45;;;;;;;7.00;3.30;;;;;;;-145.50;100.00;65435.88;5039048;28;20057;-74
2023/05/01 00:38:12;;;;;;;6.55;3.30;;;;;;;-145.50;100.00;65435.88;5044913;28;20053;-73
2023/05/01 00:40:43;;;;;;;7.35;3.30;;;;;;;-145.50;100.00;65435.88;5048138;28;20544;-74
2023/05/01 00:43:10;;;;;;;5.93;3.17;;;;;;;-145.50;100.00;65435.88;5038975;28;20151;-73
2023/05/01 00:45:39;;;;;;;7.30;3.10;;;;;;;-145.50;100.00;65435.88;5044478;28;20098;-74
2023/05/01 00:48:06;;;;;;;6.35;3.08;;;;;;;-145.50;100.00;65435.88;5042918;28;20052;-75
2023/05/01 00:50:32;;;;;;;7.20;3.22;;;;;;;-145.50;100.00;65435.88;5048712;28;20057;-74
2023/05/01 00:52:59;;;;;;;8.05;2.88;;;;;;;-145.50;100.00;65435.88;5025403;28;20051;-75
2023/05/01 00:55:25;;;;;;;5.60;2.78;;;;;;;-145.50;100.00;65435.88;5030275;28;20099;-74
2023/05/01 00:57:53;;;;;;;4.95;2.88;;;;;;;-145.50;100.00;65435.88;5044880;28;20728;-74
2023/05/01 01:00:23;;;;;;;6.38;3.13;;;;;;;-145.50;100.00;65435.88;5037562;28;20132;-75
2023/05/01 01:02:50;;;;;;;5.03;2.75;;;;;;;-145.50;100.00;65435.88;5047688;28;20044;-74
2023/05/01 01:05:23;;;;;;;4.85;2.78;;;;;;;-145.50;100.00;65435.88;5042852;28;20512;-74
2023/05/01 01:08:09;;;;;;;7.38;3.40;;;;;;;-145.50;100.00;65435.88;5048487;28;20187;-74
2023/05/01 01:10:45;;;;;;;7.78;2.88;;;;;;;-145.50;100.00;65435.88;5035537;28;20049;-74
2023/05/01 01:13:33;;;;;;;6.32;3.42;;;;;;;-145.50;100.00;65435.88;5024815;28;20052;-73
2023/05/01 01:16:22;;;;;;;4.95;3.03;;;;;;;-145.50;100.00;65435.88;5042234;28;20053;-74
2023/05/01 01:18:59;;;;;;;4.95;2.88;;;;;;;-145.50;100.00;65435.88;5044346;28;20045;-74
2023/05/01 01:21:38;;;;;;;7.10;3.10;;;;;;;-145.50;100.00;65435.88;5049622;28;20051;-74
2023/05/01 01:24:21;;;;;;;6.68;2.63;;;;;;;-145.50;100.00;65435.88;5043906;28;20140;-74
2023/05/01 01:26:57;;;;;;;6.47;2.70;;;;;;;-145.50;100.00;65435.88;5048952;28;20136;-73
2023/05/01 01:29:44;;;;;;;6.82;3.08;;;;;;;-145.50;100.00;65435.88;5021836;28;20044;-74
2023/05/01 01:32:33;;;;;;;9.10;3.35;;;;;;;-145.50;100.00;65435.88;5054238;28;20048;-74
2023/05/01 01:35:03;;;;;;;7.20;3.00;;;;;;;-145.50;100.00;65435.88;5046273;28;20045;-74
2023/05/01 01:37:44;;;;;;;7.60;3.50;;;;;;;-145.50;100.00;65435.88;5053187;28;20053;-74
2023/05/01 01:40:23;;;;;;;8.50;3.28;;;;;;;-145.50;100.00;65435.88;5043175;28;20073;-75
2023/05/01 01:42:54;;;;;;;5.95;3.08;;;;;;;-145.50;100.00;65435.88;5049717;28;20045;-74
2023/05/01 01:45:24;;;;;;;5.93;3.10;;;;;;;-145.50;100.00;65435.88;5048085;28;20088;-75
2023/05/01 01:47:52;;;;;;;4.57;2.83;;;;;;;-145.50;100.00;65435.88;5034335;28;20051;-74
2023/05/01 01:50:23;;;;;;;11.00;3.22;;;;;;;-145.50;100.00;65435.88;5032131;28;20076;-74
2023/05/01 01:52:52;;;;;;;8.02;3.30;;;;;;;-145.50;100.00;65435.88;5059552;28;20049;-74
2023/05/01 01:55:24;;;;;;;8.45;3.75;;;;;;;-145.50;100.00;65435.88;5029351;28;20361;-74
2023/05/01 01:57:51;;;;;;;6.05;3.17;;;;;;;-145.50;100.00;65435.88;5044760;28;20460;-73
2023/05/01 02:00:19;;;;;;;7.13;3.00;;;;;;;-145.50;100.00;65435.88;5053682;28;20144;-74
2023/05/01 02:02:47;;;;;;;6.85;3.03;;;;;;;-145.50;100.00;65435.88;5046935;28;20068;-74
2023/05/01 02:05:16;;;;;;;5.65;3.00;;;;;;;-145.50;100.00;65435.88;5053522;28;20053;-73
2023/05/01 02:07:45;;;;;;;;;;;;;;;-145.50;100.00;65435.88;5044668;28;20053;-74
2023/05/01 02:10:13;;;;;;;6.38;3.15;;;;;;;-145.50;100.00;65435.88;5048895;28;19920;-73
2023/05/01 02:12:43;;;;;;;6.97;3.33;;;;;;;-145.50;100.00;65435.88;5034539;28;20135;-73
2023/05/01 02:15:10;;;;;;;7.72;3.35;;;;;;;-145.50;100.00;65435.88;5040422;28;20056;-73
2023/05/01 02:17:39;;;;;;;7.45;3.63;;;;;;;-145.50;100.00;65435.88;5053274;28;20059;-74
2023/05/01 02:20:11;;;;;;;6.32;3.05;;;;;;;-145.50;100.00;65435.88;5028072;28;20446;-73
2023/05/01 02:22:39;;;;;;;9.40;3.58;;;;;;;-145.50;100.00;65435.88;5056701;28;20068;-73
2023/05/01 02:25:10;;;;;;;5.15;3.00;;;;;;;-145.50;100.00;65435.88;5043220;28;20040;-74
2023/05/01 02:27:42;;;;;;;5.75;2.85;;;;;;;-145.50;100.00;65435.88;5050168;28;20116;-74
2023/05/01 02:30:10;;;;;;;9.43;3.33;;;;;;;-145.50;100.00;65435.88;5052317;28;20056;-74
2023/05/01 02:32:37;;;;;;;6.10;2.97;;;;;;;-145.50;100.00;65435.88;5046519;28;20087;-73
2023/05/01 02:35:04;;;;;;;9.00;3.40;;;;;;;-145.50;100.00;65435.88;5049492;28;20100;-72
2023/05/01 02:37:31;;;;;;;8.07;3.35;;;;;;;-145.50;100.00;65435.88;5039725;28;20120;-74
2023/05/01 02:39:58;;;;;;;7.22;2.88;;;;;;;-145.50;100.00;65435.88;5051128;28;20517;-73
2023/05/01 02:42:27;;;;;;;8.32;3.55;;;;;;;-145.50;100.00;65435.88;5047128;28;20056;-73
2023/05/01 02:45:01;;;;;;;8.60;3.33;;;;;;;-145.50;100.00;65435.88;5051991;28;20048;-74
2023/05/01 02:47:29;;;;;;;8.05;3.47;;;;;;;-145.50;100.00;65435.88;5036962;28;20489;-74
2023/05/01 02:49:58;;;;;;;7.85;3.22;;;;;;;-145.50;100.00;65435.88;5045029;28;20069;-74
2023/05/01 02:52:25;;;;;;;6.78;3.50;;;;;;;-145.50;100.00;65435.88;5045284;28;20072;-74
2023/05/01 02:54:52;;;;;;;7.28;3.00;;;;;;;-145.50;100.00;65435.88;5045715;28;20053;-74
2023/05/01 02:57:19;;;;;;;7.72;3.08;;;;;;;-145.50;100.00;65435.88;5066025;28;20053;-73
2023/05/01 02:59:45;;;;;;;9.38;3.60;;;;;;;-145.50;100.00;65435.88;5050432;28;20140;-74
2023/05/01 03:02:12;;;;;;;8.70;3.10;;;;;;;-145.50;100.00;65435.88;5039222;28;20295;-73
2023/05/01 03:04:38;;;;;;;5.82;3.08;;;;;;;-145.50;100.00;65435.88;5036044;28;20049;-73
2023/05/01 03:07:05;;;;;;;5.63;2.78;;;;;;;-145.50;100.00;65435.88;5033862;28;20044;-73
2023/05/01 03:09:31;;;;;;;9.50;3.28;;;;;;;-145.50;100.00;65435.88;5053892;28;20055;-74
2023/05/01 03:11:58;;;;;;;7.70;3.55;;;;;;;-145.50;100.00;65435.88;5031451;28;20049;-74
2023/05/01 03:14:27;;;;;;;7.78;3.75;;;;;;;-145.50;100.00;65435.88;5059008;28;20053;-73
2023/05/01 03:16:54;;;;;;;6.50;3.03;;;;;;;-145.50;100.00;65435.88;5048946;28;20049;-73
2023/05/01 03:19:21;;;;;;;7.07;2.95;;;;;;;-145.50;100.00;65435.88;5058778;28;20053;-74
2023/05/01 03:21:47;;;;;;;6.65;3.13;;;;;;;-145.50;100.00;65435.88;5052974;28;20056;-74
2023/05/01 03:24:14;;;;;;;6.35;3.50;;;;;;;-145.50;100.00;65435.88;5029270;28;20064;-73
2023/05/01 03:26:40;;;;;;;10.52;3.30;;;;;;;-145.50;100.00;65435.88;5054017;28;20059;-74
2023/05/01 03:29:07;;;;;;;6.55;3.20;;;;;;;-145.50;100.00;65435.88;5053169;28;20099;-74
2023/05/01 03:31:34;;;;;;;10.13;3.30;;;;;;;-145.50;100.00;65435.88;5034161;28;20087;-74
2023/05/01 03:34:00;;;;;;;8.23;3.63;;;;;;;-145.50;100.00;65435.88;5054487;28;20055;-73
2023/05/01 03:36:27;;;;;;;8.05;2.90;;;;;;;-145.50;100.00;65435.88;5059445;28;20486;-74
2023/05/01 03:38:53;;;;;;;5.57;2.80;;;;;;;-145.50;100.00;65435.88;5051567;28;20102;-74
2023/05/01 03:41:20;;;;;;;6.32;3.65;;;;;;;-145.50;100.00;65435.88;5041626;28;20513;-75
2023/05/01 03:43:47;;;;;;;7.47;3.30;;;;;;;-145.50;100.00;65435.88;5060037;28;20486;-74
2023/05/01 03:46:13;;;;;;;7.38;3.47;;;;;;;-145.50;100.00;65435.88;5044931;28;20106;-74
2023/05/01 03:48:40;;;;;;;6.55;3.38;;;;;;;-145.50;100.00;65435.88;5055154;28;20079;-74
2023/05/01 03:51:06;;;;;;;7.35;3.10;;;;;;;-145.50;100.00;65435.88;5037159;28;20045;-73
2023/05/01 03:53:33;;;;;;;8.70;3.58;;;;;;;-145.50;100.00;65435.88;5036766;28;20052;-73
2023/05/01 03:55:59;;;;;;;8.35;3.22;;;;;;;-145.50;100.00;65435.88;5068313;28;20051;-74
2023/05/01 03:58:26;;;;;;;7.88;3.40;;;;;;;-145.50;100.00;65435.88;5075590;28;20055;-73
2023/05/01 04:00:55;;;;;;;9.23;4.13;;;;;;;-145.50;100.00;65435.88;5043546;28;20068;-73
2023/05/01 04:03:22;;;;;;;7.57;3.53;;;;;;;-145.50;100.00;65435.88;5051603;28;20066;-74
2023/05/01 04:05:49;;;;;;;5.53;2.95;;;;;;;-145.50;100.00;65435.88;5057682;28;20044;-73
2023/05/01 04:08:15;;;;;;;9.27;3.92;;;;;;;-145.50;100.00;65435.88;5036007;28;20088;-73
2023/05/01 04:10:42;;;;;;;7.40;3.83;;;;;;;-145.50;100.00;65435.88;5049315;28;20151;-73
2023/05/01 04:13:09;;;;;;;7.45;3.50;;;;;;;-145.50;100.00;65435.88;5032858;28;20052;-74
2023/05/01 04:15:36;;;;;;;11.07;4.07;;;;;;;-145.50;100.00;65435.88;5027770;28;20160;-73
2023/05/01 04:18:02;;;;;;;7.65;3.33;;;;;;;-145.50;100.00;65435.88;5056368;28;20059;-74
2023/05/01 04:20:30;;;;;;;6.13;3.22;;;;;;;-145.50;100.00;65435.88;5032785;28;20494;-73
2023/05/01 04:22:56;;;;;;;9.40;3.60;;;;;;;-145.50;100.00;65435.88;5034109;28;20060;-74
2023/05/01 04:25:23;;;;;;;8.13;3.55;;;;;;;-145.50;100.00;65435.88;5050224;28;20606;-74
2023/05/01 04:27:49;;;;;;;7.03;3.50;;;;;;;-145.50;100.00;65435.88;5032385;28;20063;-74
2023/05/01 04:30:16;;;;;;;9.05;4.10;;;;;;;-145.50;100.00;65435.88;5040897;28;20049;-74
2023/05/01 04:32:42;;;;;;;7.90;3.42;;;;;;;-145.50;100.00;65435.88;5038127;28;20083;-74
2023/05/01 04:35:11;;;;;;;7.63;3.72;;;;;;;-145.50;100.00;65435.88;5047607;28;20072;-74
2023/05/01 04:37:37;;;;;;;7.15;3.67;;;;;;;-145.50;100.00;65435.88;5032430;28;20052;-74
2023/05/01 04:40:05;;;;;;;6.75;3.40;;;;;;;-145.50;100.00;65435.88;5057149;28;20057;-74
2023/05/01 04:42:32;;;;;;;11.52;3.90;;;;;;;-145.50;100.00;65435.88;5052621;28;20205;-73
2023/05/01 04:45:01;;;;;;;7.78;4.97;;;;;;;-145.50;100.00;65435.88;5048026;28;20140;-74
2023/05/01 04:47:28;;;;;;;9.77;5.18;;;;;;;-145.50;100.00;65435.88;5046406;28;20141;-74
2023/05/01 04:49:54;;;;;;;8.30;4.45;;;;;;;-145.50;100.00;65435.88;5058076;28;20072;-73
2023/05/01 04:52:21;;;;;;;11.35;3.80;;;;;;;-145.50;100.00;65435.88;5059309;28;20159;-74
2023/05/01 04:54:49;;;;;;;12.02;3.95;;;;;;;-145.50;100.00;65435.88;5053761;28;20541;-74
2023/05/01 04:57:16;;;;;;;9.48;3.55;;;;;;;-145.50;100.00;65435.88;5038739;28;20431;-73
2023/05/01 04:59:42;;;;;;;10.80;4.82;;;;;;;-145.50;100.00;65435.88;5040491;28;20048;-74
2023/05/01 05:02:09;;;;;;;11.00;4.30;;;;;;;-145.50;100.00;65435.88;5072165;28;20037;-74
2023/05/01 05:04:35;;;;;;;11.55;3.90;;;;;;;-145.50;100.00;65435.88;5045815;28;20105;-73
2023/05/01 05:07:02;;;;;;;13.25;4.22;;;;;;;-145.50;100.00;65435.88;5063627;28;20045;-74
2023/05/01 05:09:29;;;;;;;6.85;3.50;;;;;;;-145.50;100.00;65435.88;5067656;28;20424;-74
2023/05/01 05:11:55;;;;;;;7.22;4.28;;;;;;;-145.50;100.00;65435.88;5060915;28;20071;-74
2023/05/01 05:14:22;;;;;;;15.95;4.18;;;;;;;-145.50;100.00;65435.88;5035080;28;20486;-74
2023/05/01 05:16:48;;;;;;;9.75;4.07;;;;;;;-145.50;100.00;65435.88;5058276;28;20066;-74
2023/05/01 05:19:16;;;;;;;9.20;4.55;;;;;;;-145.50;100.00;65435.88;5047297;28;20466;-72
2023/05/01 05:21:42;;;;;;;11.13;4.28;;;;;;;-145.50;100.00;65435.88;5055775;28;20450;-74
2023/05/01 05:24:09;;;;;;;8.77;4.35;;;;;;;-145.50;100.00;65435.88;5050181;28;20103;-73
2023/05/01 05:26:36;;;;;;;8.32;4.10;;;;;;;-145.50;100.00;65435.88;5038594;28;20056;-74
2023/05/01 05:29:03;;;;;;;11.40;3.90;;;;;;;-145.50;100.00;65435.88;5050522;28;20068;-74
2023/05/01 05:31:30;;;;;;;10.05;4.30;;;;;;;-145.50;100.00;65435.88;5053479;28;20107;-74
2023/05/01 05:33:56;;;;;;;12.88;4.38;;;;;;;-145.50;100.00;65435.88;5025156;28;20052;-72
2023/05/01 05:36:23;;;;;;;9.13;4.15;;;;;;;-145.50;100.00;65435.88;5053131;28;20059;-74
2023/05/01 05:38:50;;;;;;;11.10;4.22;;;;;;;-145.50;100.00;65435.88;5045475;28;20067;-74
2023/05/01 05:41:17;;;;;;;9.00;4.75;;;;;;;-145.50;100.00;65435.88;5048954;28;20350;-74
2023/05/01 05:43:43;;;;;;;9.73;4.50;;;;;;;-145.50;100.00;65435.88;5053103;28;20044;-73
2023/05/01 05:46:10;;;;;;;11.65;4.35;;;;;;;-145.50;100.00;65435.88;5039169;28;20060;-74
2023/05/01 05:48:36;;;;;;;11.70;4.78;;;;;;;-145.50;100.00;65435.88;5051437;28;20497;-75
2023/05/01 05:51:03;;;;;;;7.80;4.57;;;;;;;-145.50;100.00;65435.88;5047767;28;20048;-72
2023/05/01 05:53:30;;;;;;;8.85;4.40;;;;;;;-145.50;100.00;65435.88;5034278;28;20091;-74
2023/05/01 05:55:56;;;;;;;9.50;4.05;;;;;;;-145.50;100.00;65435.88;5052519;28;20469;-75
2023/05/01 05:58:26;;;;;;;12.40;5.28;;;;;;;-145.50;100.00;65435.88;5048128;28;20065;-73
2023/05/01 06:00:56;;;;;;;11.68;4.20;;;;;;;-145.50;100.00;65435.88;5048136;28;20049;-73
2023/05/01 06:03:23;;;;;;;12.15;4.28;;;;;;;-145.50;100.00;65435.88;5027911;28;20064;-72
2023/05/01 06:05:50;;;;;;;7.78;4.72;;;;;;;-145.50;100.00;65435.88;5029273;28;20453;-74
2023/05/01 06:08:17;;;;;;;9.15;4.28;;;;;;;-145.50;100.00;65435.88;5046820;28;20515;-74
2023/05/01 06:10:44;;;;;;;10.05;5.10;;;;;;;-145.50;100.00;65435.88;5055287;28;20068;-74
2023/05/01 06:13:12;;;;;;;9.82;5.80;;;;;;;-145.50;100.00;65435.88;5050211;28;20086;-74
2023/05/01 06:15:40;;;;;;;9.52;4.43;;;;;;;-145.50;100.00;65435.88;5043716;28;20486;-74
2023/05/01 06:18:07;;;;;;;12.25;4.57;;;;;;;-145.50;100.00;65435.88;5055066;28;20056;-75
2023/05/01 06:20:35;;;;;;;9.07;4.75;;;;;;;-145.50;100.00;65435.88;5048178;28;20139;-74
2023/05/01 06:23:02;;;;;;;8.20;3.90;;;;;;;-145.50;100.00;65435.88;5055040;28;20077;-74
2023/05/01 06:25:29;;;;;;;9.82;4.25;;;;;;;-145.50;100.00;65435.88;5051566;28;20029;-73
2023/05/01 06:27:55;;;;;;;8.20;4.03;;;;;;;-145.50;100.00;65435.88;5044879;28;20066;-74
2023/05/01 06:30:21;;;;;;;8.95;4.57;;;;;;;-145.50;100.00;65435.88;5049827;28;20375;-74
2023/05/01 06:32:48;;;;;;;9.00;4.00;;;;;;;-145.50;100.00;65435.88;5032402;28;20049;-74
2023/05/01 06:35:16;;;;;;;8.48;4.80;;;;;;;-145.50;100.00;65435.88;5035842;28;20528;-74
2023/05/01 06:37:42;;;;;;;8.15;4.03;;;;;;;-145.50;100.00;65435.88;5054752;28;20051;-73
2023/05/01 06:40:09;;;;;;;12.10;5.20;;;;;;;-145.50;100.00;65435.88;5053341;28;20045;-75
2023/05/01 06:42:37;;;;;;;13.57;4.75;;;;;;;-145.50;100.00;65435.88;5042742;28;20135;-74
2023/05/01 06:45:07;;;;;;;12.20;5.00;;;;;;;-145.50;100.00;65435.88;5048524;28;20142;-74
2023/05/01 06:47:33;;;;;;;9.73;4.70;;;;;;;-145.50;100.00;65435.88;5034360;28;20486;-74
2023/05/01 06:50:00;;;;;;;9.35;4.68;;;;;;;-145.50;100.00;65435.88;5051991;28;20048;-74
2023/05/01 06:52:30;;;;;;;13.85;5.13;;;;;;;-145.50;100.00;65435.88;5036661;28;20118;-74
2023/05/01 06:54:56;;;;;;;9.57;4.80;;;;;;;-145.50;100.00;65435.88;5032493;28;20045;-75
2023/05/01 06:57:23;;;;;;;8.05;4.40;;;;;;;-145.50;100.00;65435.88;5022005;28;20084;-74
2023/05/01 06:59:50;;;;;;;10.15;5.25;;;;;;;-145.50;100.00;65435.88;5047088;28;20530;-74
2023/05/01 07:02:16;;;;;;;8.85;4.82;;;;;;;-145.50;100.00;65435.88;5046324;28;20057;-75
2023/05/01 07:04:44;;;;;;;8.15;4.85;;;;;;;-145.50;100.00;65435.88;5038954;28;20060;-72
2023/05/01 07:07:10;;;;;;;8.88;4.70;;;;;;;-145.50;100.00;65435.88;5031699;28;20048;-73
2023/05/01 07:09:39;;;;;;;15.10;5.10;;;;;;;-145.50;100.00;65435.88;5034656;28;20067;-74
2023/05/01 07:12:06;;;;;;;;;;;;;;;-145.50;100.00;65435.88;5022143;28;20449;-73
2023/05/01 07:14:34;;;;;;;9.23;4.57;;;;;;;-145.50;100.00;65435.88;5048635;28;19919;-73
2023/05/01 07:17:01;;;;;;;;;;;;;;;-145.50;100.00;65435.88;5044095;28;20073;-73
2023/05/01 07:19:28;;;;;;;10.75;5.00;;;;;;;-145.50;100.00;65435.88;5050279;28;19925;-73
2023/05/01 07:21:54;;;;;;;8.90;4.65;;;;;;;-145.50;100.00;65435.88;5053096;28;20496;-73
2023/05/01 07:24:21;;;;;;;8.68;4.88;;;;;;;-145.50;100.00;65435.88;5024501;28;20103;-74
2023/05/01 07:26:47;;;;;;;8.82;5.13;;;;;;;-145.50;100.00;65435.88;5049494;28;20489;-73
2023/05/01 07:29:15;;;;;;;9.10;5.18;;;;;;;-145.50;100.00;65435.88;5031475;28;20056;-73
2023/05/01 07:31:42;;;;;;;13.40;5.20;;;;;;;-145.50;100.00;65435.88;5055293;28;20059;-73
2023/05/01 07:34:09;;;;;;;9.15;4.97;;;;;;;-145.50;100.00;65435.88;5048573;28;20130;-73
2023/05/01 07:36:35;;;;;;;10.30;5.03;;;;;;;-145.50;100.00;65435.88;5052059;28;20063;-75
2023/05/01 07:39:03;;;;;;;8.60;4.90;;;;;;;-145.50;100.00;65435.88;5028323;28;20045;-73
2023/05/01 07:41:30;;;;;;;11.45;5.25;;;;;;;-145.50;100.00;65435.88;5048213;28;20053;-73
2023/05/01 07:44:00;;;;;;;7.05;4.93;;;;;;;-145.50;100.00;65435.88;5050894;28;20444;-73
2023/05/01 07:46:26;;;;;;;8.27;4.78;;;;;;;-145.50;100.00;65435.88;5023459;28;20056;-74
2023/05/01 07:48:53;;;;;;;9.10;4.50;;;;;;;-145.50;100.00;65435.88;5034840;28;20326;-74
2023/05/01 07:51:20;;;;;;;10.05;5.15;;;;;;;-145.50;100.00;65435.88;5041810;28;20052;-73
2023/05/01 07:53:48;;;;;;;11.80;5.07;;;;;;;-145.50;100.00;65435.88;5026947;28;20071;-73
2023/05/01 07:56:14;;;;;;;9.38;5.53;;;;;;;-145.50;100.00;65435.88;5042327;28;20201;-73
2023/05/01 07:58:41;;;;;;;9.00;5.05;;;;;;;-145.50;100.00;65435.88;5043468;28;20087;-73
2023/05/01 08:01:08;;;;;;;9.48;4.95;;;;;;;-145.50;100.00;65435.88;5054350;28;20086;-74
2023/05/01 08:03:35;;;;;;;11.10;6.03;;;;;;;-145.50;100.00;65435.88;5024437;28;20210;-73
2023/05/01 08:06:02;;;;;;;9.63;5.32;;;;;;;-145.50;100.00;65435.88;5044817;28;20386;-73
2023/05/01 08:08:28;;;;;;;10.23;5.60;;;;;;;-145.50;100.00;65435.88;5021211;28;20110;-72
2023/05/01 08:10:55;;;;;;;10.45;5.22;;;;;;;-145.50;100.00;65435.88;5043516;28;20461;-73
2023/05/01 08:13:21;;;;;;;9.40;4.85;;;;;;;-145.50;100.00;65435.88;5049078;28;20095;-73
2023/05/01 08:15:48;;;;;;;10.18;5.57;;;;;;;-145.50;100.00;65435.88;5044249;28;20409;-73
2023/05/01 08:18:19;;;;;;;8.20;5.07;;;;;;;-145.50;100.00;65435.88;5052727;28;20065;-73
2023/05/01 08:20:47;;;;;;;9.77;5.95;;;;;;;-145.50;100.00;65435.88;5037333;28;20053;-73
2023/05/01 08:23:16;;;;;;;12.55;5.35;;;;;;;-145.50;100.00;65435.88;5044355;28;20052;-73
2023/05/01 08:25:45;;;;;;;8.52;5.55;;;;;;;-145.50;100.00;65435.88;5043296;28;20052;-72
2023/05/01 08:28:15;;;;;;;9.57;5.07;;;;;;;-145.50;100.00;65435.88;5053677;28;20513;-73
2023/05/01 08:30:43;;;;;;;9.35;4.43;;;;;;;-145.50;100.00;65435.88;5047544;28;20087;-73
2023/05/01 08:33:09;;;;;;;9.10;5.03;;;;;;;-145.50;100.00;65435.88;5042681;28;20063;-73
2023/05/01 08:35:36;;;;;;;10.20;4.65;;;;;;;-145.50;100.00;65435.88;5051901;28;20041;-74
2023/05/01 08:38:02;;;;;;;10.50;5.18;;;;;;;-145.50;100.00;65435.88;5042473;28;20445;-73
2023/05/01 08:40:34;;;;;;;9.80;5.72;;;;;;;-145.50;100.00;65435.88;5053384;28;20056;-73
2023/05/01 08:43:02;;;;;;;8.85;5.30;;;;;;;-145.50;100.00;65435.88;5047791;28;20155;-74
2023/05/01 08:45:34;;;;;;;16.58;7.40;;;;;;;-145.50;100.00;65435.88;5031484;28;20045;-74
2023/05/01 08:48:05;;;;;;;11.95;5.70;;;;;;;-145.50;100.00;65435.88;5033990;28;20083;-73
2023/05/01 08:50:37;;;;;;;11.90;5.32;;;;;;;-145.50;100.00;65435.88;5039144;28;20663;-75
2023/05/01 08:53:05;;;;;;;9.20;5.18;;;;;;;-145.50;100.00;65435.88;5049999;28;20048;-74
2023/05/01 08:55:33;;;;;;;;;;;;;;;-145.50;100.00;65435.88;5026351;28;20538;-75
2023/05/01 08:58:02;;;;;;;10.93;5.23;;;;;;;-145.50;100.00;65435.88;5059914;28;20471;-75
2023/05/01 09:00:30;;;;;;;11.13;5.45;;;;;;;-145.50;100.00;65435.88;5035941;28;20162;-74
2023/05/01 09:02:59;;;;;;;9.73;5.28;;;;;;;-145.50;100.00;65435.88;5056813;28;20052;-74
2023/05/01 09:05:26;;;;;;;8.13;5.63;;;;;;;-145.50;100.00;65435.88;5046713;28;20052;-74
2023/05/01 09:07:54;;;;;;;12.90;5.50;;;;;;;-145.50;100.00;65435.88;5045774;28;20041;-73
2023/05/01 09:10:21;;;;;;;13.60;6.40;;;;;;;-145.50;100.00;65435.88;5034508;28;20409;-74
2023/05/01 09:12:53;;;;;;;11.52;5.38;;;;;;;-145.50;100.00;65435.88;5044454;28;20139;-74
2023/05/01 09:15:20;;;;;;;9.75;5.45;;;;;;;-145.50;100.00;65435.88;5048693;28;20041;-74
2023/05/01 09:17:47;;;;;;;8.57;4.57;;;;;;;-145.50;100.00;65435.88;5031996;28;20079;-73
2023/05/01 09:20:16;;;;;;;11.98;5.65;;;;;;;-145.50;100.00;65435.88;5017273;28;20057;-74
2023/05/01 09:22:42;;;;;;;;;;;;;;;-145.50;100.00;65435.88;5045063;28;20049;-72
2023/05/01 09:25:09;;;;;;;7.60;5.03;;;;;;;-145.50;100.00;65435.88;5042617;28;19925;-73
2023/05/01 09:27:37;;;;;;;7.55;4.70;;;;;;;-145.50;100.00;65435.88;5033188;28;20565;-73
2023/05/01 09:30:05;;;;;;;14.38;4.90;;;;;;;-145.50;100.00;65435.88;5040242;28;20079;-75
2023/05/01 09:32:32;;;;;;;9.05;4.88;;;;;;;-145.50;100.00;65435.88;5019288;28;20056;-74
2023/05/01 09:35:10;;;;;;;7.97;4.25;;;;;;;-145.50;100.00;65435.88;4985729;28;20054;-72
2023/05/01 09:37:37;;;;;;;7.32;4.60;;;;;;;-145.50;100.00;65435.88;5001440;28;20101;-75
2023/05/01 09:40:10;;;;;;;8.35;5.05;;;;;;;-145.50;100.00;65435.88;4977919;28;20085;-75
2023/05/01 09:42:38;;;;;;;6.47;3.92;;;;;;;-145.50;100.00;65435.88;4982098;28;20090;-74
2023/05/01 09:45:14;;;;;;;6.50;4.03;;;;;;;-145.50;100.00;65435.88;4985998;28;20487;-74
2023/05/01 09:47:42;;;;;;;8.18;4.25;;;;;;;-145.50;100.00;65435.88;4984098;28;20216;-75
2023/05/01 09:50:12;;;;;;;6.68;4.22;;;;;;;-145.50;100.00;65435.88;4974506;28;20064;-75
2023/05/01 09:52:39;;;;;;;5.80;3.67;;;;;;;-145.50;100.00;65435.88;4984404;28;20637;-73
2023/05/01 09:55:16;;;;;;;5.60;4.00;;;;;;;-145.50;100.00;65435.88;4992200;28;20081;-74
2023/05/01 09:57:45;;;;;;;9.55;4.60;;;;;;;-145.50;100.00;65435.88;4976438;28;20085;-75
2023/05/01 10:00:14;;;;;;;7.90;4.35;;;;;;;-145.50;100.00;65435.88;4987754;28;20755;-74
2023/05/01 10:02:42;;;;;;;5.25;4.10;;;;;;;-145.50;100.00;65435.88;4988142;28;20491;-75
2023/05/01 10:05:10;;;;;;;7.03;4.30;;;;;;;-145.50;100.00;65435.88;4985734;28;20034;-75
2023/05/01 10:08:00;;;;;;;8.05;4.68;;;;;;;-145.50;100.00;65435.88;4975496;28;20050;-74
2023/05/01 10:10:27;;;;;;;8.85;4.32;;;;;;;-145.50;100.00;65435.88;4967875;28;20054;-75
2023/05/01 10:12:54;;;;;;;5.38;3.85;;;;;;;-145.50;100.00;65435.88;4986256;28;20060;-75
2023/05/01 10:15:21;;;;;;;8.00;4.65;;;;;;;-145.50;100.00;65435.88;4987140;28;20042;-75
2023/05/01 10:17:52;;;;;;;6.22;4.18;;;;;;;-145.50;100.00;65435.88;4982222;28;20065;-76
2023/05/01 10:20:19;;;;;;;9.25;4.35;;;;;;;-145.50;100.00;65435.88;4983847;28;20065;-76
2023/05/01 10:22:46;;;;;;;7.70;4.32;;;;;;;-145.50;100.00;65435.88;4968305;28;20046;-75
2023/05/01 10:25:13;;;;;;;7.90;5.03;;;;;;;-145.50;100.00;65435.88;4995093;28;20073;-75
2023/05/01 10:27:41;;;;;;;11.88;4.80;;;;;;;-145.50;100.00;65435.88;4980223;28;20108;-75
2023/05/01 10:30:08;;;;;;;7.32;4.00;;;;;;;-145.50;100.00;65435.88;4982817;28;20058;-75
2023/05/01 10:32:37;;;;;;;6.13;3.70;;;;;;;-145.50;100.00;65435.88;4992736;28;20458;-76
2023/05/01 10:35:18;;;;;;;7.50;4.35;;;;;;;-145.50;100.00;65435.88;4969169;28;20044;-75
2023/05/01 10:37:54;;;;;;;7.25;3.55;;;;;;;-145.50;100.00;65435.88;4987622;28;20060;-76
2023/05/01 10:40:39;;;;;;;8.57;4.13;;;;;;;-145.50;100.00;65435.88;4975297;28;20050;-75
2023/05/01 10:43:17;;;;;;;8.02;4.40;;;;;;;-145.50;100.00;65435.88;4994575;28;20050;-76
2023/05/01 10:45:48;;;;;;;7.40;4.13;;;;;;;-145.50;100.00;65435.88;4987997;28;20405;-75
2023/05/01 10:48:41;;;;;;;7.95;4.05;;;;;;;-145.50;100.00;65435.88;4974403;28;20653;-76
2023/05/01 10:51:09;;;;;;;9.13;3.95;;;;;;;-145.50;100.00;65435.88;4953137;28;20046;-76
2023/05/01 10:53:36;;;;;;;;;;;;;;;-145.50;100.00;65435.88;4989992;28;20055;-76
2023/05/01 10:56:06;;;;;;;11.45;4.00;;;;;;;-145.50;100.00;65435.88;4979090;28;19926;-76
2023/05/01 10:58:36;;;;;;;6.50;4.00;;;;;;;-145.50;100.00;65435.88;4980456;28;20082;-75
2023/05/01 11:01:35;;;;;;;8.32;4.40;;;;;;;-145.50;100.00;65435.88;4985428;28;20086;-76
2023/05/01 11:04:03;;;;;;;5.05;3.45;;;;;;;-145.50;100.00;65435.88;4983121;28;20711;-76
2023/05/01 11:06:30;;;;;;;7.38;3.63;;;;;;;-145.50;100.00;65435.88;4989352;28;20061;-76
2023/05/01 11:08:58;;;;;;;7.82;3.83;;;;;;;-145.50;100.00;65435.88;4984570;28;20065;-76
2023/05/01 11:11:25;;;;;;;4.35;3.38;;;;;;;-145.50;100.00;65435.88;4973426;28;20134;-74
2023/05/01 11:14:01;;;;;;;7.18;3.97;;;;;;;-145.50;100.00;65435.88;4994527;28;20050;-76
2023/05/01 11:16:36;;;;;;;6.43;3.47;;;;;;;-145.50;100.00;65435.88;4995382;28;20682;-76